sensor_id;sensor_type;location;lat;lon;timestamp;P1;durP1;ratioP1;P2;durP2;ratioP2
5999;SDS011;3028;49.468;7.694;2023-02-12T00:00:54;19.98;;;16.58;;
5999;SDS011;3028;49.468;7.694;2023-02-12T00:02:56;16.90;;;14.32;;
5999;SDS011;3028;49.468;7.694;2023-02-12T00:04:58;17.95;;;14.15;;
5999;SDS011;3028;49.468;7.694;2023-02-12T00:06:59;13.73;;;12.43;;
5999;SDS011;3028;49.468;7.694;2023-02-12T00:09:01;13.43;;;12.23;;
5999;SDS011;3028;49.468;7.694;2023-02-12T00:11:10;18.13;;;12.23;;
5999;SDS011;3028;49.468;7.694;2023-02-12T00:13:13;15.80;;;13.80;;
5999;SDS011;3028;49.468;7.694;2023-02-12T00:15:16;14.93;;;13.52;;
5999;SDS011;3028;49.468;7.694;2023-02-12T00:17:17;20.10;;;12.13;;
5999;SDS011;3028;49.468;7.694;2023-02-12T00:19:19;15.65;;;11.77;;
5999;SDS011;3028;49.468;7.694;2023-02-12T00:21:21;13.80;;;12.38;;
5999;SDS011;3028;49.468;7.694;2023-02-12T00:23:23;13.05;;;11.80;;
5999;SDS011;3028;49.468;7.694;2023-02-12T00:25:25;15.38;;;13.82;;
5999;SDS011;3028;49.468;7.694;2023-02-12T00:27:27;17.95;;;14.98;;
5999;SDS011;3028;49.468;7.694;2023-02-12T00:29:28;15.73;;;14.23;;
5999;SDS011;3028;49.468;7.694;2023-02-12T00:31:30;15.82;;;14.27;;
5999;SDS011;3028;49.468;7.694;2023-02-12T00:33:32;18.10;;;13.25;;
5999;SDS011;3028;49.468;7.694;2023-02-12T00:35:34;19.92;;;16.70;;
5999;SDS011;3028;49.468;7.694;2023-02-12T00:37:39;18.50;;;15.23;;
5999;SDS011;3028;49.468;7.694;2023-02-12T00:39:40;16.15;;;14.68;;
5999;SDS011;3028;49.468;7.694;2023-02-12T00:41:42;15.50;;;13.90;;
5999;SDS011;3028;49.468;7.694;2023-02-12T00:43:44;20.90;;;13.50;;
5999;SDS011;3028;49.468;7.694;2023-02-12T00:45:47;19.05;;;12.90;;
5999;SDS011;3028;49.468;7.694;2023-02-12T00:47:49;13.68;;;12.38;;
5999;SDS011;3028;49.468;7.694;2023-02-12T00:49:50;14.15;;;12.63;;
5999;SDS011;3028;49.468;7.694;2023-02-12T00:51:52;14.20;;;12.82;;
5999;SDS011;3028;49.468;7.694;2023-02-12T00:53:54;16.02;;;13.48;;
5999;SDS011;3028;49.468;7.694;2023-02-12T00:55:55;17.42;;;13.68;;
5999;SDS011;3028;49.468;7.694;2023-02-12T00:57:57;19.75;;;14.38;;
5999;SDS011;3028;49.468;7.694;2023-02-12T01:00:00;15.15;;;12.73;;
5999;SDS011;3028;49.468;7.694;2023-02-12T01:02:02;14.90;;;13.50;;
5999;SDS011;3028;49.468;7.694;2023-02-12T01:04:04;15.15;;;12.40;;
5999;SDS011;3028;49.468;7.694;2023-02-12T01:06:06;16.00;;;13.23;;
5999;SDS011;3028;49.468;7.694;2023-02-12T01:08:10;15.52;;;13.82;;
5999;SDS011;3028;49.468;7.694;2023-02-12T01:10:13;24.83;;;13.82;;
5999;SDS011;3028;49.468;7.694;2023-02-12T01:12:16;15.15;;;13.63;;
5999;SDS011;3028;49.468;7.694;2023-02-12T01:14:17;15.30;;;11.90;;
5999;SDS011;3028;49.468;7.694;2023-02-12T01:16:20;16.65;;;12.75;;
5999;SDS011;3028;49.468;7.694;2023-02-12T01:18:24;12.88;;;11.52;;
5999;SDS011;3028;49.468;7.694;2023-02-12T01:20:25;13.93;;;12.52;;
5999;SDS011;3028;49.468;7.694;2023-02-12T01:22:27;12.60;;;11.32;;
5999;SDS011;3028;49.468;7.694;2023-02-12T01:24:29;14.38;;;13.07;;
5999;SDS011;3028;49.468;7.694;2023-02-12T01:26:31;12.63;;;11.40;;
5999;SDS011;3028;49.468;7.694;2023-02-12T01:28:33;14.43;;;12.18;;
5999;SDS011;3028;49.468;7.694;2023-02-12T01:30:35;14.32;;;12.10;;
5999;SDS011;3028;49.468;7.694;2023-02-12T01:32:36;13.18;;;10.52;;
5999;SDS011;3028;49.468;7.694;2023-02-12T01:34:38;13.25;;;12.00;;
5999;SDS011;3028;49.468;7.694;2023-02-12T01:36:40;13.63;;;11.65;;
5999;SDS011;3028;49.468;7.694;2023-02-12T01:38:41;13.27;;;11.93;;
5999;SDS011;3028;49.468;7.694;2023-02-12T01:40:43;12.25;;;11.02;;
5999;SDS011;3028;49.468;7.694;2023-02-12T01:42:45;13.50;;;12.25;;
5999;SDS011;3028;49.468;7.694;2023-02-12T01:47:15;15.25;;;12.05;;
5999;SDS011;3028;49.468;7.694;2023-02-12T01:49:21;13.30;;;12.13;;
5999;SDS011;3028;49.468;7.694;2023-02-12T01:51:26;16.55;;;12.45;;
5999;SDS011;3028;49.468;7.694;2023-02-12T01:53:32;13.23;;;12.02;;
5999;SDS011;3028;49.468;7.694;2023-02-12T01:55:38;17.17;;;11.95;;
5999;SDS011;3028;49.468;7.694;2023-02-12T01:57:40;14.55;;;13.05;;
5999;SDS011;3028;49.468;7.694;2023-02-12T01:59:44;15.43;;;12.05;;
5999;SDS011;3028;49.468;7.694;2023-02-12T02:01:50;13.73;;;11.68;;
5999;SDS011;3028;49.468;7.694;2023-02-12T02:03:56;12.43;;;11.23;;
5999;SDS011;3028;49.468;7.694;2023-02-12T02:06:10;13.75;;;12.23;;
5999;SDS011;3028;49.468;7.694;2023-02-12T02:08:14;15.43;;;11.82;;
5999;SDS011;3028;49.468;7.694;2023-02-12T02:10:16;14.15;;;12.65;;
5999;SDS011;3028;49.468;7.694;2023-02-12T02:12:18;13.13;;;10.43;;
5999;SDS011;3028;49.468;7.694;2023-02-12T02:14:38;11.98;;;10.88;;
5999;SDS011;3028;49.468;7.694;2023-02-12T02:16:42;12.73;;;11.40;;
5999;SDS011;3028;49.468;7.694;2023-02-12T02:18:52;12.40;;;11.10;;
5999;SDS011;3028;49.468;7.694;2023-02-12T02:21:45;10.48;;;9.57;;
5999;SDS011;3028;49.468;7.694;2023-02-12T02:31:14;15.23;;;11.38;;
5999;SDS011;3028;49.468;7.694;2023-02-12T02:35:31;16.98;;;12.00;;
5999;SDS011;3028;49.468;7.694;2023-02-12T02:37:39;11.40;;;9.93;;
5999;SDS011;3028;49.468;7.694;2023-02-12T02:39:49;12.48;;;11.10;;
5999;SDS011;3028;49.468;7.694;2023-02-12T02:42:00;12.23;;;10.93;;
5999;SDS011;3028;49.468;7.694;2023-02-12T02:44:35;13.63;;;12.32;;
5999;SDS011;3028;49.468;7.694;2023-02-12T02:46:46;10.65;;;9.60;;
5999;SDS011;3028;49.468;7.694;2023-02-12T02:48:51;13.02;;;11.45;;
5999;SDS011;3028;49.468;7.694;2023-02-12T02:50:55;13.43;;;11.30;;
5999;SDS011;3028;49.468;7.694;2023-02-12T02:55:42;13.32;;;11.77;;
5999;SDS011;3028;49.468;7.694;2023-02-12T02:57:53;11.50;;;10.35;;
5999;SDS011;3028;49.468;7.694;2023-02-12T02:59:59;11.55;;;10.35;;
5999;SDS011;3028;49.468;7.694;2023-02-12T03:02:06;16.45;;;11.45;;
5999;SDS011;3028;49.468;7.694;2023-02-12T03:04:14;11.68;;;10.57;;
5999;SDS011;3028;49.468;7.694;2023-02-12T03:06:55;12.23;;;11.10;;
5999;SDS011;3028;49.468;7.694;2023-02-12T03:09:04;11.43;;;10.32;;
5999;SDS011;3028;49.468;7.694;2023-02-12T03:11:23;13.00;;;11.48;;
5999;SDS011;3028;49.468;7.694;2023-02-12T03:13:28;12.38;;;10.65;;
5999;SDS011;3028;49.468;7.694;2023-02-12T03:15:35;14.48;;;11.25;;
5999;SDS011;3028;49.468;7.694;2023-02-12T03:17:40;11.50;;;10.30;;
5999;SDS011;3028;49.468;7.694;2023-02-12T03:19:55;11.75;;;10.75;;
5999;SDS011;3028;49.468;7.694;2023-02-12T03:22:01;13.77;;;10.60;;
5999;SDS011;3028;49.468;7.694;2023-02-12T03:24:15;15.15;;;11.25;;
5999;SDS011;3028;49.468;7.694;2023-02-12T03:26:24;12.68;;;11.02;;
5999;SDS011;3028;49.468;7.694;2023-02-12T03:28:30;12.55;;;11.23;;
5999;SDS011;3028;49.468;7.694;2023-02-12T03:30:44;12.77;;;11.48;;
5999;SDS011;3028;49.468;7.694;2023-02-12T03:35:16;11.20;;;10.02;;
5999;SDS011;3028;49.468;7.694;2023-02-12T03:37:32;12.40;;;11.23;;
5999;SDS011;3028;49.468;7.694;2023-02-12T03:44:46;12.23;;;10.90;;
5999;SDS011;3028;49.468;7.694;2023-02-12T03:46:58;14.00;;;11.70;;
5999;SDS011;3028;49.468;7.694;2023-02-12T03:49:06;14.18;;;12.02;;
5999;SDS011;3028;49.468;7.694;2023-02-12T03:51:17;12.27;;;11.05;;
5999;SDS011;3028;49.468;7.694;2023-02-12T03:53:22;15.27;;;12.30;;
5999;SDS011;3028;49.468;7.694;2023-02-12T03:55:25;14.45;;;10.73;;
5999;SDS011;3028;49.468;7.694;2023-02-12T03:57:28;10.20;;;9.15;;
5999;SDS011;3028;49.468;7.694;2023-02-12T03:59:35;12.80;;;11.38;;
5999;SDS011;3028;49.468;7.694;2023-02-12T04:01:38;13.00;;;11.80;;
5999;SDS011;3028;49.468;7.694;2023-02-12T04:03:40;13.40;;;12.00;;
5999;SDS011;3028;49.468;7.694;2023-02-12T04:05:42;12.48;;;11.20;;
5999;SDS011;3028;49.468;7.694;2023-02-12T04:07:44;14.57;;;12.25;;
5999;SDS011;3028;49.468;7.694;2023-02-12T04:09:45;11.85;;;10.65;;
5999;SDS011;3028;49.468;7.694;2023-02-12T04:17:34;12.10;;;10.98;;
5999;SDS011;3028;49.468;7.694;2023-02-12T04:19:34;13.52;;;12.10;;
5999;SDS011;3028;49.468;7.694;2023-02-12T04:31:42;14.23;;;12.82;;
5999;SDS011;3028;49.468;7.694;2023-02-12T04:33:37;15.52;;;12.57;;
5999;SDS011;3028;49.468;7.694;2023-02-12T04:35:49;12.70;;;11.48;;
5999;SDS011;3028;49.468;7.694;2023-02-12T04:38:15;14.02;;;12.23;;
5999;SDS011;3028;49.468;7.694;2023-02-12T04:40:22;13.00;;;11.35;;
5999;SDS011;3028;49.468;7.694;2023-02-12T04:42:24;14.15;;;12.63;;
5999;SDS011;3028;49.468;7.694;2023-02-12T04:44:27;14.82;;;11.27;;
5999;SDS011;3028;49.468;7.694;2023-02-12T04:46:31;15.55;;;13.50;;
5999;SDS011;3028;49.468;7.694;2023-02-12T04:48:33;13.32;;;11.80;;
5999;SDS011;3028;49.468;7.694;2023-02-12T04:50:39;15.98;;;12.80;;
5999;SDS011;3028;49.468;7.694;2023-02-12T04:52:42;13.63;;;12.50;;
5999;SDS011;3028;49.468;7.694;2023-02-12T04:54:44;14.82;;;13.43;;
5999;SDS011;3028;49.468;7.694;2023-02-12T04:56:45;17.50;;;13.02;;
5999;SDS011;3028;49.468;7.694;2023-02-12T04:58:48;13.05;;;11.75;;
5999;SDS011;3028;49.468;7.694;2023-02-12T05:00:50;17.02;;;15.15;;
5999;SDS011;3028;49.468;7.694;2023-02-12T05:02:52;13.30;;;12.10;;
5999;SDS011;3028;49.468;7.694;2023-02-12T05:04:54;14.90;;;12.80;;
5999;SDS011;3028;49.468;7.694;2023-02-12T05:06:55;15.18;;;13.68;;
5999;SDS011;3028;49.468;7.694;2023-02-12T05:08:57;13.65;;;12.30;;
5999;SDS011;3028;49.468;7.694;2023-02-12T05:11:05;14.80;;;13.27;;
5999;SDS011;3028;49.468;7.694;2023-02-12T05:13:08;13.82;;;12.38;;
5999;SDS011;3028;49.468;7.694;2023-02-12T05:15:10;13.55;;;12.20;;
5999;SDS011;3028;49.468;7.694;2023-02-12T05:17:12;21.80;;;12.50;;
5999;SDS011;3028;49.468;7.694;2023-02-12T05:19:14;14.77;;;12.55;;
5999;SDS011;3028;49.468;7.694;2023-02-12T05:21:16;14.77;;;13.18;;
5999;SDS011;3028;49.468;7.694;2023-02-12T05:23:17;16.08;;;11.85;;
5999;SDS011;3028;49.468;7.694;2023-02-12T05:25:19;15.38;;;13.98;;
5999;SDS011;3028;49.468;7.694;2023-02-12T05:27:21;12.48;;;11.38;;
5999;SDS011;3028;49.468;7.694;2023-02-12T05:29:23;14.45;;;13.15;;
5999;SDS011;3028;49.468;7.694;2023-02-12T05:31:24;14.55;;;12.88;;
5999;SDS011;3028;49.468;7.694;2023-02-12T05:33:26;15.00;;;12.77;;
5999;SDS011;3028;49.468;7.694;2023-02-12T05:35:28;13.18;;;11.88;;
5999;SDS011;3028;49.468;7.694;2023-02-12T05:37:30;13.40;;;12.07;;
5999;SDS011;3028;49.468;7.694;2023-02-12T05:39:35;14.32;;;12.27;;
5999;SDS011;3028;49.468;7.694;2023-02-12T05:41:36;12.25;;;11.07;;
5999;SDS011;3028;49.468;7.694;2023-02-12T05:43:39;12.48;;;11.18;;
5999;SDS011;3028;49.468;7.694;2023-02-12T05:45:40;12.75;;;11.38;;
5999;SDS011;3028;49.468;7.694;2023-02-12T05:47:45;13.38;;;11.95;;
5999;SDS011;3028;49.468;7.694;2023-02-12T05:49:46;18.42;;;12.43;;
5999;SDS011;3028;49.468;7.694;2023-02-12T05:51:48;14.50;;;12.80;;
5999;SDS011;3028;49.468;7.694;2023-02-12T05:53:51;16.08;;;11.93;;
5999;SDS011;3028;49.468;7.694;2023-02-12T05:56:05;13.63;;;11.52;;
5999;SDS011;3028;49.468;7.694;2023-02-12T05:58:23;12.63;;;11.35;;
5999;SDS011;3028;49.468;7.694;2023-02-12T06:00:27;13.55;;;12.13;;
5999;SDS011;3028;49.468;7.694;2023-02-12T06:02:33;12.60;;;11.18;;
5999;SDS011;3028;49.468;7.694;2023-02-12T06:04:35;12.88;;;11.57;;
5999;SDS011;3028;49.468;7.694;2023-02-12T06:06:36;12.50;;;11.27;;
5999;SDS011;3028;49.468;7.694;2023-02-12T06:08:38;12.35;;;11.23;;
5999;SDS011;3028;49.468;7.694;2023-02-12T06:10:40;11.57;;;10.48;;
5999;SDS011;3028;49.468;7.694;2023-02-12T06:12:41;11.70;;;10.55;;
5999;SDS011;3028;49.468;7.694;2023-02-12T06:14:43;12.60;;;11.45;;
5999;SDS011;3028;49.468;7.694;2023-02-12T06:16:48;17.27;;;11.43;;
5999;SDS011;3028;49.468;7.694;2023-02-12T06:18:51;15.13;;;13.65;;
5999;SDS011;3028;49.468;7.694;2023-02-12T06:20:53;12.77;;;11.57;;
5999;SDS011;3028;49.468;7.694;2023-02-12T06:22:55;12.60;;;11.40;;
5999;SDS011;3028;49.468;7.694;2023-02-12T06:24:57;14.70;;;12.80;;
5999;SDS011;3028;49.468;7.694;2023-02-12T06:26:58;13.93;;;12.63;;
5999;SDS011;3028;49.468;7.694;2023-02-12T06:29:00;15.00;;;13.40;;
5999;SDS011;3028;49.468;7.694;2023-02-12T06:31:02;14.80;;;11.88;;
5999;SDS011;3028;49.468;7.694;2023-02-12T06:33:04;14.25;;;12.85;;
5999;SDS011;3028;49.468;7.694;2023-02-12T06:35:06;16.27;;;12.27;;
5999;SDS011;3028;49.468;7.694;2023-02-12T06:37:07;12.88;;;11.73;;
5999;SDS011;3028;49.468;7.694;2023-02-12T06:39:09;12.27;;;11.07;;
5999;SDS011;3028;49.468;7.694;2023-02-12T06:41:12;13.55;;;12.15;;
5999;SDS011;3028;49.468;7.694;2023-02-12T06:43:13;12.00;;;10.88;;
5999;SDS011;3028;49.468;7.694;2023-02-12T06:45:16;18.58;;;12.23;;
5999;SDS011;3028;49.468;7.694;2023-02-12T06:47:17;12.00;;;10.85;;
5999;SDS011;3028;49.468;7.694;2023-02-12T06:49:19;14.00;;;11.27;;
5999;SDS011;3028;49.468;7.694;2023-02-12T06:51:21;12.10;;;10.95;;
5999;SDS011;3028;49.468;7.694;2023-02-12T06:53:23;13.15;;;11.85;;
5999;SDS011;3028;49.468;7.694;2023-02-12T06:55:26;13.15;;;11.68;;
5999;SDS011;3028;49.468;7.694;2023-02-12T06:57:28;14.55;;;13.07;;
5999;SDS011;3028;49.468;7.694;2023-02-12T06:59:30;13.25;;;11.73;;
5999;SDS011;3028;49.468;7.694;2023-02-12T07:01:32;12.93;;;11.18;;
5999;SDS011;3028;49.468;7.694;2023-02-12T07:03:33;11.32;;;10.30;;
5999;SDS011;3028;49.468;7.694;2023-02-12T07:05:37;13.82;;;11.18;;
5999;SDS011;3028;49.468;7.694;2023-02-12T07:07:40;13.90;;;12.25;;
5999;SDS011;3028;49.468;7.694;2023-02-12T07:09:41;12.65;;;11.40;;
5999;SDS011;3028;49.468;7.694;2023-02-12T07:11:43;13.63;;;12.18;;
5999;SDS011;3028;49.468;7.694;2023-02-12T07:13:45;19.38;;;11.43;;
5999;SDS011;3028;49.468;7.694;2023-02-12T07:15:46;12.80;;;11.57;;
5999;SDS011;3028;49.468;7.694;2023-02-12T07:17:48;14.30;;;13.07;;
5999;SDS011;3028;49.468;7.694;2023-02-12T07:19:50;13.10;;;11.30;;
5999;SDS011;3028;49.468;7.694;2023-02-12T07:21:51;12.88;;;11.20;;
5999;SDS011;3028;49.468;7.694;2023-02-12T07:23:53;13.68;;;11.93;;
5999;SDS011;3028;49.468;7.694;2023-02-12T07:25:56;13.70;;;12.23;;
5999;SDS011;3028;49.468;7.694;2023-02-12T07:28:01;27.08;;;13.43;;
5999;SDS011;3028;49.468;7.694;2023-02-12T07:30:03;12.48;;;11.27;;
5999;SDS011;3028;49.468;7.694;2023-02-12T07:32:06;13.45;;;12.07;;
5999;SDS011;3028;49.468;7.694;2023-02-12T07:34:09;12.57;;;11.35;;
5999;SDS011;3028;49.468;7.694;2023-02-12T07:36:12;14.07;;;12.57;;
5999;SDS011;3028;49.468;7.694;2023-02-12T07:38:15;12.68;;;11.43;;
5999;SDS011;3028;49.468;7.694;2023-02-12T07:40:17;13.40;;;11.98;;
5999;SDS011;3028;49.468;7.694;2023-02-12T07:42:18;16.63;;;13.18;;
5999;SDS011;3028;49.468;7.694;2023-02-12T07:44:20;14.75;;;13.35;;
5999;SDS011;3028;49.468;7.694;2023-02-12T07:46:26;15.02;;;13.55;;
5999;SDS011;3028;49.468;7.694;2023-02-12T07:48:32;14.32;;;12.90;;
5999;SDS011;3028;49.468;7.694;2023-02-12T07:50:34;14.82;;;13.43;;
5999;SDS011;3028;49.468;7.694;2023-02-12T07:52:35;15.85;;;13.30;;
5999;SDS011;3028;49.468;7.694;2023-02-12T07:54:37;12.68;;;11.45;;
5999;SDS011;3028;49.468;7.694;2023-02-12T07:56:40;18.25;;;12.82;;
5999;SDS011;3028;49.468;7.694;2023-02-12T07:58:43;15.75;;;13.75;;
5999;SDS011;3028;49.468;7.694;2023-02-12T08:00:45;14.00;;;12.70;;
5999;SDS011;3028;49.468;7.694;2023-02-12T08:02:50;14.07;;;12.35;;
5999;SDS011;3028;49.468;7.694;2023-02-12T08:04:56;18.98;;;15.35;;
5999;SDS011;3028;49.468;7.694;2023-02-12T08:06:58;14.88;;;13.50;;
5999;SDS011;3028;49.468;7.694;2023-02-12T08:09:01;14.40;;;13.05;;
5999;SDS011;3028;49.468;7.694;2023-02-12T08:11:05;14.18;;;12.80;;
5999;SDS011;3028;49.468;7.694;2023-02-12T08:13:08;14.38;;;12.88;;
5999;SDS011;3028;49.468;7.694;2023-02-12T08:15:10;16.58;;;13.25;;
5999;SDS011;3028;49.468;7.694;2023-02-12T08:17:11;17.15;;;14.07;;
5999;SDS011;3028;49.468;7.694;2023-02-12T08:19:13;16.60;;;14.82;;
5999;SDS011;3028;49.468;7.694;2023-02-12T08:21:22;14.75;;;13.30;;
5999;SDS011;3028;49.468;7.694;2023-02-12T08:23:25;16.92;;;12.98;;
5999;SDS011;3028;49.468;7.694;2023-02-12T08:25:27;18.85;;;14.55;;
5999;SDS011;3028;49.468;7.694;2023-02-12T08:27:29;18.95;;;16.17;;
5999;SDS011;3028;49.468;7.694;2023-02-12T08:29:30;18.17;;;16.48;;
5999;SDS011;3028;49.468;7.694;2023-02-12T08:31:37;19.88;;;16.52;;
5999;SDS011;3028;49.468;7.694;2023-02-12T08:33:40;16.95;;;15.27;;
5999;SDS011;3028;49.468;7.694;2023-02-12T08:35:42;25.10;;;15.18;;
5999;SDS011;3028;49.468;7.694;2023-02-12T08:37:43;20.60;;;15.95;;
5999;SDS011;3028;49.468;7.694;2023-02-12T08:39:47;23.95;;;16.48;;
5999;SDS011;3028;49.468;7.694;2023-02-12T08:41:49;16.25;;;14.60;;
5999;SDS011;3028;49.468;7.694;2023-02-12T08:43:51;16.95;;;15.43;;
5999;SDS011;3028;49.468;7.694;2023-02-12T08:45:54;16.70;;;14.93;;
5999;SDS011;3028;49.468;7.694;2023-02-12T08:47:58;18.52;;;16.15;;
5999;SDS011;3028;49.468;7.694;2023-02-12T08:50:00;17.60;;;15.88;;
5999;SDS011;3028;49.468;7.694;2023-02-12T08:52:02;18.92;;;15.65;;
5999;SDS011;3028;49.468;7.694;2023-02-12T08:54:05;16.60;;;14.85;;
5999;SDS011;3028;49.468;7.694;2023-02-12T08:56:08;19.38;;;15.30;;
5999;SDS011;3028;49.468;7.694;2023-02-12T08:58:11;19.95;;;17.90;;
5999;SDS011;3028;49.468;7.694;2023-02-12T09:00:13;19.23;;;17.23;;
5999;SDS011;3028;49.468;7.694;2023-02-12T09:02:15;20.73;;;16.10;;
5999;SDS011;3028;49.468;7.694;2023-02-12T09:04:18;18.38;;;16.52;;
5999;SDS011;3028;49.468;7.694;2023-02-12T09:06:23;17.35;;;15.57;;
5999;SDS011;3028;49.468;7.694;2023-02-12T09:08:25;20.48;;;16.77;;
5999;SDS011;3028;49.468;7.694;2023-02-12T09:10:26;25.80;;;17.05;;
5999;SDS011;3028;49.468;7.694;2023-02-12T09:12:28;21.08;;;17.77;;
5999;SDS011;3028;49.468;7.694;2023-02-12T09:14:30;19.92;;;17.88;;
5999;SDS011;3028;49.468;7.694;2023-02-12T09:16:32;20.67;;;18.65;;
5999;SDS011;3028;49.468;7.694;2023-02-12T09:18:35;18.85;;;16.30;;
5999;SDS011;3028;49.468;7.694;2023-02-12T09:20:38;21.40;;;17.48;;
5999;SDS011;3028;49.468;7.694;2023-02-12T09:22:41;21.42;;;16.52;;
5999;SDS011;3028;49.468;7.694;2023-02-12T09:24:43;22.50;;;17.65;;
5999;SDS011;3028;49.468;7.694;2023-02-12T09:26:45;25.00;;;18.58;;
5999;SDS011;3028;49.468;7.694;2023-02-12T09:28:47;28.23;;;16.80;;
5999;SDS011;3028;49.468;7.694;2023-02-12T09:30:52;20.88;;;18.40;;
5999;SDS011;3028;49.468;7.694;2023-02-12T09:32:55;32.05;;;17.98;;
5999;SDS011;3028;49.468;7.694;2023-02-12T09:34:57;21.02;;;16.60;;
5999;SDS011;3028;49.468;7.694;2023-02-12T09:36:58;24.90;;;20.17;;
5999;SDS011;3028;49.468;7.694;2023-02-12T09:39:00;24.40;;;19.13;;
5999;SDS011;3028;49.468;7.694;2023-02-12T09:41:11;23.88;;;18.58;;
5999;SDS011;3028;49.468;7.694;2023-02-12T09:43:39;20.90;;;18.52;;
5999;SDS011;3028;49.468;7.694;2023-02-12T09:45:50;22.95;;;17.75;;
5999;SDS011;3028;49.468;7.694;2023-02-12T09:50:32;32.58;;;20.40;;
5999;SDS011;3028;49.468;7.694;2023-02-12T09:52:38;26.02;;;19.60;;
5999;SDS011;3028;49.468;7.694;2023-02-12T09:54:40;23.80;;;19.25;;
5999;SDS011;3028;49.468;7.694;2023-02-12T09:56:46;31.73;;;19.27;;
5999;SDS011;3028;49.468;7.694;2023-02-12T09:58:51;26.95;;;19.13;;
5999;SDS011;3028;49.468;7.694;2023-02-12T10:00:53;29.98;;;20.00;;
5999;SDS011;3028;49.468;7.694;2023-02-12T10:02:55;30.75;;;19.42;;
5999;SDS011;3028;49.468;7.694;2023-02-12T10:05:05;30.83;;;18.05;;
5999;SDS011;3028;49.468;7.694;2023-02-12T10:11:49;29.23;;;18.13;;
5999;SDS011;3028;49.468;7.694;2023-02-12T10:16:22;27.35;;;18.33;;
5999;SDS011;3028;49.468;7.694;2023-02-12T10:18:47;20.70;;;17.27;;
5999;SDS011;3028;49.468;7.694;2023-02-12T10:23:57;25.63;;;19.38;;
5999;SDS011;3028;49.468;7.694;2023-02-12T10:28:26;30.67;;;21.05;;
5999;SDS011;3028;49.468;7.694;2023-02-12T10:30:39;31.48;;;19.67;;
5999;SDS011;3028;49.468;7.694;2023-02-12T10:32:45;30.42;;;21.27;;
5999;SDS011;3028;49.468;7.694;2023-02-12T10:34:48;27.63;;;18.58;;
5999;SDS011;3028;49.468;7.694;2023-02-12T10:36:52;30.50;;;19.27;;
5999;SDS011;3028;49.468;7.694;2023-02-12T10:39:02;30.60;;;17.80;;
5999;SDS011;3028;49.468;7.694;2023-02-12T10:41:14;32.08;;;17.77;;
5999;SDS011;3028;49.468;7.694;2023-02-12T10:43:16;25.98;;;16.85;;
5999;SDS011;3028;49.468;7.694;2023-02-12T10:45:19;19.05;;;16.08;;
5999;SDS011;3028;49.468;7.694;2023-02-12T10:47:23;23.75;;;18.02;;
5999;SDS011;3028;49.468;7.694;2023-02-12T10:49:27;23.23;;;16.70;;
5999;SDS011;3028;49.468;7.694;2023-02-12T10:53:55;19.73;;;16.80;;
5999;SDS011;3028;49.468;7.694;2023-02-12T10:56:09;20.65;;;15.35;;
5999;SDS011;3028;49.468;7.694;2023-02-12T10:58:16;21.98;;;15.10;;
5999;SDS011;3028;49.468;7.694;2023-02-12T11:02:32;17.77;;;15.13;;
5999;SDS011;3028;49.468;7.694;2023-02-12T11:04:34;20.42;;;14.07;;
5999;SDS011;3028;49.468;7.694;2023-02-12T11:06:39;20.10;;;15.82;;
5999;SDS011;3028;49.468;7.694;2023-02-12T11:09:05;20.67;;;15.20;;
5999;SDS011;3028;49.468;7.694;2023-02-12T11:13:23;15.15;;;13.32;;
5999;SDS011;3028;49.468;7.694;2023-02-12T11:15:28;18.05;;;13.30;;
5999;SDS011;3028;49.468;7.694;2023-02-12T11:17:36;15.25;;;11.93;;
5999;SDS011;3028;49.468;7.694;2023-02-12T11:19:39;14.07;;;12.60;;
5999;SDS011;3028;49.468;7.694;2023-02-12T11:21:41;14.88;;;12.15;;
5999;SDS011;3028;49.468;7.694;2023-02-12T11:23:43;13.50;;;11.57;;
5999;SDS011;3028;49.468;7.694;2023-02-12T11:25:53;15.77;;;12.75;;
5999;SDS011;3028;49.468;7.694;2023-02-12T11:30:17;16.42;;;11.30;;
5999;SDS011;3028;49.468;7.694;2023-02-12T11:32:21;12.63;;;11.43;;
5999;SDS011;3028;49.468;7.694;2023-02-12T11:34:22;14.13;;;11.30;;
5999;SDS011;3028;49.468;7.694;2023-02-12T11:36:25;11.10;;;9.95;;
5999;SDS011;3028;49.468;7.694;2023-02-12T11:38:29;11.95;;;9.30;;
5999;SDS011;3028;49.468;7.694;2023-02-12T11:40:37;10.15;;;8.80;;
5999;SDS011;3028;49.468;7.694;2023-02-12T11:42:38;12.88;;;10.07;;
5999;SDS011;3028;49.468;7.694;2023-02-12T11:44:50;8.38;;;7.35;;
5999;SDS011;3028;49.468;7.694;2023-02-12T11:47:04;8.27;;;7.43;;
5999;SDS011;3028;49.468;7.694;2023-02-12T11:49:12;8.60;;;7.78;;
5999;SDS011;3028;49.468;7.694;2023-02-12T11:51:23;10.75;;;8.70;;
5999;SDS011;3028;49.468;7.694;2023-02-12T11:53:28;9.68;;;8.45;;
5999;SDS011;3028;49.468;7.694;2023-02-12T11:55:33;10.48;;;8.23;;
5999;SDS011;3028;49.468;7.694;2023-02-12T11:59:43;9.68;;;8.15;;
5999;SDS011;3028;49.468;7.694;2023-02-12T12:01:46;10.82;;;8.00;;
5999;SDS011;3028;49.468;7.694;2023-02-12T12:05:59;9.60;;;8.52;;
5999;SDS011;3028;49.468;7.694;2023-02-12T12:08:27;7.75;;;7.00;;
5999;SDS011;3028;49.468;7.694;2023-02-12T12:10:33;9.68;;;7.30;;
5999;SDS011;3028;49.468;7.694;2023-02-12T12:12:47;9.73;;;8.77;;
5999;SDS011;3028;49.468;7.694;2023-02-12T12:14:54;9.40;;;8.50;;
5999;SDS011;3028;49.468;7.694;2023-02-12T12:17:18;7.90;;;6.15;;
5999;SDS011;3028;49.468;7.694;2023-02-12T12:19:51;5.63;;;5.03;;
5999;SDS011;3028;49.468;7.694;2023-02-12T12:22:01;6.60;;;5.90;;
5999;SDS011;3028;49.468;7.694;2023-02-12T12:26:33;5.22;;;4.72;;
5999;SDS011;3028;49.468;7.694;2023-02-12T12:28:36;4.65;;;4.25;;
5999;SDS011;3028;49.468;7.694;2023-02-12T12:32:55;4.57;;;4.10;;
5999;SDS011;3028;49.468;7.694;2023-02-12T12:35:00;6.13;;;5.53;;
5999;SDS011;3028;49.468;7.694;2023-02-12T12:37:15;5.35;;;4.30;;
5999;SDS011;3028;49.468;7.694;2023-02-12T12:49:27;4.30;;;3.03;;
5999;SDS011;3028;49.468;7.694;2023-02-12T13:15:47;3.65;;;3.08;;
5999;SDS011;3028;49.468;7.694;2023-02-12T13:18:03;3.25;;;2.55;;
5999;SDS011;3028;49.468;7.694;2023-02-12T13:24:50;4.88;;;4.38;;
5999;SDS011;3028;49.468;7.694;2023-02-12T13:26:57;4.25;;;3.88;;
5999;SDS011;3028;49.468;7.694;2023-02-12T13:29:11;4.38;;;3.83;;
5999;SDS011;3028;49.468;7.694;2023-02-12T13:31:19;5.15;;;4.55;;
5999;SDS011;3028;49.468;7.694;2023-02-12T13:33:39;4.10;;;3.70;;
5999;SDS011;3028;49.468;7.694;2023-02-12T13:35:44;5.00;;;4.50;;
5999;SDS011;3028;49.468;7.694;2023-02-12T13:37:48;4.72;;;4.20;;
5999;SDS011;3028;49.468;7.694;2023-02-12T13:39:52;3.35;;;3.05;;
5999;SDS011;3028;49.468;7.694;2023-02-12T13:42:01;4.18;;;3.47;;
5999;SDS011;3028;49.468;7.694;2023-02-12T13:44:13;4.78;;;4.38;;
5999;SDS011;3028;49.468;7.694;2023-02-12T13:48:34;5.80;;;5.03;;
5999;SDS011;3028;49.468;7.694;2023-02-12T13:50:53;6.13;;;5.63;;
5999;SDS011;3028;49.468;7.694;2023-02-12T13:55:38;5.90;;;5.05;;
5999;SDS011;3028;49.468;7.694;2023-02-12T13:58:09;4.80;;;4.25;;
5999;SDS011;3028;49.468;7.694;2023-02-12T14:02:50;5.88;;;5.28;;
5999;SDS011;3028;49.468;7.694;2023-02-12T14:06:58;4.40;;;4.10;;
5999;SDS011;3028;49.468;7.694;2023-02-12T14:09:07;6.53;;;4.25;;
5999;SDS011;3028;49.468;7.694;2023-02-12T14:11:14;4.03;;;3.65;;
5999;SDS011;3028;49.468;7.694;2023-02-12T14:13:19;4.85;;;4.28;;
5999;SDS011;3028;49.468;7.694;2023-02-12T14:15:30;4.85;;;4.35;;
5999;SDS011;3028;49.468;7.694;2023-02-12T14:22:00;3.70;;;3.22;;
5999;SDS011;3028;49.468;7.694;2023-02-12T14:24:39;3.80;;;3.50;;
5999;SDS011;3028;49.468;7.694;2023-02-12T14:26:36;4.32;;;3.92;;
5999;SDS011;3028;49.468;7.694;2023-02-12T14:31:17;4.63;;;4.28;;
5999;SDS011;3028;49.468;7.694;2023-02-12T14:33:22;7.22;;;4.75;;
5999;SDS011;3028;49.468;7.694;2023-02-12T14:37:32;4.20;;;3.88;;
5999;SDS011;3028;49.468;7.694;2023-02-12T14:39:38;5.35;;;4.57;;
5999;SDS011;3028;49.468;7.694;2023-02-12T14:41:39;4.68;;;4.28;;
5999;SDS011;3028;49.468;7.694;2023-02-12T14:43:42;5.00;;;3.75;;
5999;SDS011;3028;49.468;7.694;2023-02-12T14:50:42;5.50;;;5.00;;
5999;SDS011;3028;49.468;7.694;2023-02-12T14:52:52;5.15;;;4.72;;